Portada
METAR-TAF:

METAR-TAF

Aeroports :

Salalah, Oman

latitud: 17-02N, longitud: 054-05E, altitud: 20 m

Observació

L'informe es va fer fa 46 minuts, a les 03:50 UTC
Vent 2 kt amb direcció variable
Temperatura 29°C
Humitat 66%
Pressió 1013 hPa
Visibilitat 10 km o més
Escasses núvols a una alçada de 2500 ft

METAR: OOSA 150350Z VRB02KT 9999 FEW025 29/22 Q1013 NOSIG

Hora: 08:36 (04:36 UTC)

Pronòstic

L'informe es va fer fa 4 hores i 56 minuts, a les 23:40 UTC
Pronòstic vàlid del 15 a les 00 UTC al 16 a les 06 UTC
Vent 8 kt del Est/Sud-Est
Visibilitat 10 km o més
Escasses núvols a una alçada de 2500 ft
Temporalment
l' 15 a les 01 UTC al 15 a les 04 UTC
Vent 3 kt amb direcció variable
Evolucionant progressivament
l' 15 a les 05 UTC al 15 a les 07 UTC
Vent 10 kt del Sud/Sud-Est
Evolucionant progressivament
l' 15 a les 19 UTC al 15 a les 21 UTC
Vent 3 kt amb direcció variable

TAF: OOSA 142340Z 1500/1606 12008KT 9999 FEW025 TEMPO 1501/1504 VRB03KT BECMG 1505/1507 16010KT BECMG 1519/1521 VRB03KT

Observacions i pronòstics meteorològics de més de 4000 aeroports (METAR i TAF).

Les estacions disponibles són els punts grocs i vermells al mapa.

Posi el ratolí al punt desitjat per veure el nom de l'estació.

Feu clic per veure les observacions i els pronòstics meteorològics.

Per canviar el mapa: feu clic els botons verds amb una creu de color negre per apropar; al botó verd amb un guió per allunyar la imatge; o en les fletxes verdes per a mapes adjacents.


METAR-TAF: